createdAt,value
2022-11-20T00:00:29.563Z,0.00
2022-11-20T00:01:29.575Z,0.00
2022-11-20T00:02:29.544Z,0.00
2022-11-20T00:03:29.538Z,0.00
2022-11-20T00:04:29.527Z,0.00
2022-11-20T00:05:29.526Z,0.00
2022-11-20T00:06:29.541Z,0.00
2022-11-20T00:07:29.596Z,0.00
2022-11-20T00:08:29.501Z,0.00
2022-11-20T00:09:29.494Z,0.00
2022-11-20T00:10:29.485Z,0.00
2022-11-20T00:11:29.508Z,0.00
2022-11-20T00:12:29.482Z,0.00
2022-11-20T00:13:29.484Z,0.00
2022-11-20T00:14:29.463Z,0.00
2022-11-20T00:15:29.452Z,0.00
2022-11-20T00:16:29.469Z,0.00
2022-11-20T00:17:29.426Z,0.00
2022-11-20T00:18:30.432Z,0.00
2022-11-20T00:19:29.425Z,0.00
2022-11-20T00:20:29.417Z,0.00
2022-11-20T00:21:29.439Z,0.00
2022-11-20T00:22:29.401Z,0.00
2022-11-20T00:23:29.396Z,0.00
2022-11-20T00:24:29.383Z,0.00
2022-11-20T00:25:29.377Z,0.00
2022-11-20T00:26:29.395Z,0.00
2022-11-20T00:27:29.373Z,0.00
2022-11-20T00:28:29.360Z,0.00
2022-11-20T00:29:29.348Z,0.00
2022-11-20T00:30:29.342Z,0.00
2022-11-20T00:31:29.358Z,0.00
2022-11-20T00:32:29.326Z,0.00
2022-11-20T00:33:29.320Z,0.00
2022-11-20T00:34:29.309Z,0.00
2022-11-20T00:35:29.307Z,0.00
2022-11-20T00:36:29.328Z,0.00
2022-11-20T00:37:29.291Z,0.00
2022-11-20T00:38:29.281Z,0.00
2022-11-20T00:39:29.282Z,0.00
2022-11-20T00:40:29.271Z,0.00
2022-11-20T00:41:29.288Z,0.00
2022-11-20T00:42:29.257Z,0.00
2022-11-20T00:43:29.250Z,0.00
2022-11-20T00:44:29.242Z,0.00
2022-11-20T00:45:29.237Z,0.00
2022-11-20T00:46:29.254Z,0.00
2022-11-20T00:47:29.217Z,0.00
2022-11-20T00:48:29.217Z,0.00
2022-11-20T00:49:29.208Z,0.00
2022-11-20T00:50:29.199Z,0.00
2022-11-20T00:51:29.219Z,0.00
2022-11-20T00:52:29.182Z,0.00
2022-11-20T00:53:29.175Z,0.00
2022-11-20T00:54:29.168Z,0.00
2022-11-20T00:55:29.160Z,0.00
2022-11-20T00:56:29.176Z,0.00
2022-11-20T00:57:29.147Z,0.00
2022-11-20T00:58:29.169Z,0.00
2022-11-20T00:59:29.135Z,0.00
2022-11-20T01:00:29.132Z,0.00
2022-11-20T01:01:29.186Z,0.00
2022-11-20T01:02:29.114Z,0.00
2022-11-20T01:03:29.103Z,0.00
2022-11-20T01:04:29.104Z,0.00
2022-11-20T01:05:29.095Z,0.00
2022-11-20T01:06:29.088Z,0.00
2022-11-20T01:07:29.137Z,0.00
2022-11-20T01:08:29.065Z,0.00
2022-11-20T01:09:29.059Z,0.00
2022-11-20T01:10:29.051Z,0.00
2022-11-20T01:11:29.050Z,0.00
2022-11-20T01:12:29.062Z,0.00
2022-11-20T01:13:29.034Z,0.00
2022-11-20T01:14:29.016Z,0.00
2022-11-20T01:15:30.015Z,0.00
2022-11-20T01:16:29.012Z,0.00
2022-11-20T01:17:29.025Z,0.00
2022-11-20T01:18:28.998Z,0.00
2022-11-20T01:19:28.997Z,0.00
2022-11-20T01:20:28.979Z,0.00
2022-11-20T01:21:28.976Z,0.00
2022-11-20T01:22:28.996Z,0.00
2022-11-20T01:23:28.970Z,0.00
2022-11-20T01:24:28.957Z,0.00
2022-11-20T01:25:28.951Z,0.00
2022-11-20T01:26:28.952Z,0.00
2022-11-20T01:27:28.960Z,0.00
2022-11-20T01:28:28.935Z,0.00
2022-11-20T01:29:28.924Z,0.00
2022-11-20T01:30:28.915Z,0.00
2022-11-20T01:31:28.909Z,0.00
2022-11-20T01:32:28.926Z,0.00
2022-11-20T01:33:28.889Z,0.00
2022-11-20T01:34:28.887Z,0.00
2022-11-20T01:35:28.882Z,0.00
2022-11-20T01:36:28.871Z,0.00
2022-11-20T01:37:28.890Z,0.00
2022-11-20T01:38:28.857Z,0.00
2022-11-20T01:39:28.851Z,0.00
2022-11-20T01:40:28.844Z,0.00
2022-11-20T01:41:28.837Z,0.00
2022-11-20T01:42:28.854Z,0.00
2022-11-20T01:43:28.826Z,0.00
2022-11-20T01:44:28.817Z,0.00
2022-11-20T01:45:28.807Z,0.00
2022-11-20T01:46:28.799Z,0.00
2022-11-20T01:47:28.823Z,0.00
2022-11-20T01:48:28.792Z,0.00
2022-11-20T01:49:28.778Z,0.00
2022-11-20T01:50:28.773Z,0.00
2022-11-20T01:51:28.763Z,0.00
2022-11-20T01:52:28.780Z,0.00
2022-11-20T01:53:28.750Z,0.00
2022-11-20T01:54:28.744Z,0.00
2022-11-20T01:55:28.737Z,0.00
2022-11-20T01:56:28.730Z,0.00
2022-11-20T01:57:28.750Z,0.00
2022-11-20T01:58:28.715Z,0.00
2022-11-20T01:59:28.708Z,0.00
2022-11-20T02:00:28.698Z,0.00
2022-11-20T02:01:28.746Z,0.00
2022-11-20T02:02:28.711Z,0.00
2022-11-20T02:03:28.681Z,0.00
2022-11-20T02:04:28.672Z,0.00
2022-11-20T02:05:28.668Z,0.00
2022-11-20T02:06:28.655Z,0.00
2022-11-20T02:07:28.742Z,0.00
2022-11-20T02:08:28.648Z,0.00
2022-11-20T02:09:28.637Z,0.00
2022-11-20T02:10:28.629Z,0.00
2022-11-20T02:11:28.628Z,0.00
2022-11-20T02:12:28.638Z,0.00
2022-11-20T02:13:28.602Z,0.00
2022-11-20T02:14:28.607Z,0.00
2022-11-20T02:15:30.433Z,0.00
2022-11-20T02:16:29.584Z,0.00
2022-11-20T02:17:28.601Z,0.00
2022-11-20T02:18:28.599Z,0.00
2022-11-20T02:19:28.568Z,0.00
2022-11-20T02:20:28.560Z,0.00
2022-11-20T02:21:28.548Z,0.00
2022-11-20T02:22:28.566Z,0.00
2022-11-20T02:23:28.534Z,0.00
2022-11-20T02:24:28.530Z,0.00
2022-11-20T02:25:28.521Z,0.00
2022-11-20T02:26:28.512Z,0.00
2022-11-20T02:27:28.535Z,0.00
2022-11-20T02:28:28.496Z,0.00
2022-11-20T02:29:28.490Z,0.00
2022-11-20T02:30:28.484Z,0.00
2022-11-20T02:31:28.477Z,0.00
2022-11-20T02:32:28.468Z,0.00
2022-11-20T02:33:28.485Z,0.00
2022-11-20T02:34:28.455Z,0.00
2022-11-20T02:35:28.444Z,0.00
2022-11-20T02:36:28.436Z,0.00
2022-11-20T02:37:28.451Z,0.00
2022-11-20T02:38:28.417Z,0.00
2022-11-20T02:39:28.413Z,0.00
2022-11-20T02:40:28.404Z,0.00
2022-11-20T02:41:28.400Z,0.00
2022-11-20T02:42:28.393Z,0.00
2022-11-20T02:43:28.407Z,0.00
2022-11-20T02:44:28.376Z,0.00
2022-11-20T02:45:28.372Z,0.00
2022-11-20T02:46:28.364Z,0.00
2022-11-20T02:47:28.357Z,0.00
2022-11-20T02:48:33.572Z,0.00
2022-11-20T02:49:30.341Z,0.00
2022-11-20T02:50:28.331Z,0.00
2022-11-20T02:51:28.325Z,0.00
2022-11-20T02:52:28.320Z,0.00
2022-11-20T02:53:28.333Z,0.00
2022-11-20T02:54:28.302Z,0.00
2022-11-20T02:55:28.296Z,0.00
2022-11-20T02:56:28.282Z,0.00
2022-11-20T02:57:28.277Z,0.00
2022-11-20T02:58:28.291Z,0.00
2022-11-20T02:59:28.266Z,0.00
2022-11-20T03:00:28.257Z,0.00
2022-11-20T03:01:28.282Z,0.00
2022-11-20T03:02:28.240Z,0.00
2022-11-20T03:03:28.255Z,0.00
2022-11-20T03:04:28.226Z,0.00
2022-11-20T03:05:28.220Z,0.00
2022-11-20T03:06:28.209Z,0.00
2022-11-20T03:07:28.264Z,0.00
2022-11-20T03:08:28.221Z,0.00
2022-11-20T03:09:28.189Z,0.00
2022-11-20T03:10:28.182Z,0.00
2022-11-20T03:11:28.181Z,0.00
2022-11-20T03:12:28.166Z,0.00
2022-11-20T03:13:28.183Z,0.00
2022-11-20T03:14:28.149Z,0.00
2022-11-20T03:15:28.142Z,0.00
2022-11-20T03:16:28.137Z,0.00
2022-11-20T03:17:28.129Z,0.00
2022-11-20T03:18:28.149Z,0.00
2022-11-20T03:19:28.111Z,0.00
2022-11-20T03:20:28.109Z,0.00
2022-11-20T03:21:28.103Z,0.00
2022-11-20T03:22:28.097Z,0.00
2022-11-20T03:23:28.115Z,0.00
2022-11-20T03:24:28.080Z,0.00
2022-11-20T03:25:28.073Z,0.00
2022-11-20T03:26:28.066Z,0.00
2022-11-20T03:27:28.053Z,0.00
2022-11-20T03:28:28.070Z,0.00
2022-11-20T03:29:28.046Z,0.00
2022-11-20T03:30:30.713Z,0.00
2022-11-20T03:31:29.028Z,0.00
2022-11-20T03:32:28.015Z,0.00
2022-11-20T03:33:28.033Z,0.00
2022-11-20T03:34:28.004Z,0.00
2022-11-20T03:35:27.998Z,0.00
2022-11-20T03:36:27.975Z,0.00
2022-11-20T03:37:28.979Z,0.00
2022-11-20T03:38:27.994Z,0.00
2022-11-20T03:39:27.967Z,0.00
2022-11-20T03:40:27.957Z,0.00
2022-11-20T03:41:27.954Z,0.00
2022-11-20T03:42:27.944Z,0.00
2022-11-20T03:43:27.960Z,0.00
2022-11-20T03:44:27.927Z,0.00
2022-11-20T03:45:27.919Z,0.00
2022-11-20T03:46:27.908Z,0.00
2022-11-20T03:47:27.903Z,0.00
2022-11-20T03:48:27.923Z,0.00
2022-11-20T03:49:27.892Z,0.00
2022-11-20T03:50:27.900Z,0.00
2022-11-20T03:51:27.878Z,0.00
2022-11-20T03:52:27.872Z,0.00
2022-11-20T03:53:27.896Z,0.00
2022-11-20T03:54:27.852Z,0.00
2022-11-20T03:55:27.847Z,0.00
2022-11-20T03:56:27.844Z,0.00
2022-11-20T03:57:27.838Z,0.00
2022-11-20T03:58:27.946Z,0.00
2022-11-20T03:59:27.817Z,0.00
2022-11-20T04:00:27.812Z,0.00
2022-11-20T04:01:27.835Z,0.00
2022-11-20T04:02:27.797Z,0.00
2022-11-20T04:03:27.790Z,0.00
2022-11-20T04:04:27.804Z,0.00
2022-11-20T04:05:27.771Z,0.00
2022-11-20T04:06:27.768Z,0.00
2022-11-20T04:07:27.821Z,0.00
2022-11-20T04:08:27.752Z,0.00
2022-11-20T04:09:27.767Z,0.00
2022-11-20T04:10:27.734Z,0.00
2022-11-20T04:11:27.730Z,0.00
2022-11-20T04:12:27.723Z,0.00
2022-11-20T04:13:27.715Z,0.00
2022-11-20T04:14:27.730Z,0.00
2022-11-20T04:15:27.700Z,0.00
2022-11-20T04:16:27.699Z,0.00
2022-11-20T04:17:27.685Z,0.00
2022-11-20T04:18:27.680Z,0.00
2022-11-20T04:19:27.700Z,0.00
2022-11-20T04:20:27.665Z,0.00
2022-11-20T04:21:27.660Z,0.00
2022-11-20T04:22:27.650Z,0.00
2022-11-20T04:23:28.978Z,0.00
2022-11-20T04:24:28.667Z,0.00
2022-11-20T04:25:27.632Z,0.00
2022-11-20T04:26:27.611Z,0.00
2022-11-20T04:27:28.621Z,0.00
2022-11-20T04:28:27.607Z,0.00
2022-11-20T04:29:27.624Z,0.00
2022-11-20T04:30:27.603Z,0.00
2022-11-20T04:31:27.585Z,0.00
2022-11-20T04:32:27.576Z,0.00
2022-11-20T04:33:28.974Z,0.00
2022-11-20T04:34:29.592Z,0.00
2022-11-20T04:35:27.558Z,0.00
2022-11-20T04:36:27.548Z,0.00
2022-11-20T04:37:27.541Z,0.00
2022-11-20T04:38:27.535Z,0.00
2022-11-20T04:39:27.552Z,0.00
2022-11-20T04:40:27.522Z,0.00
2022-11-20T04:41:27.511Z,0.00
2022-11-20T04:42:27.510Z,0.00
2022-11-20T04:43:27.504Z,0.00
2022-11-20T04:44:27.516Z,0.00
2022-11-20T04:45:27.482Z,0.00
2022-11-20T04:46:27.480Z,0.00
2022-11-20T04:47:27.470Z,0.00
2022-11-20T04:48:27.464Z,0.00
2022-11-20T04:49:27.496Z,0.00
2022-11-20T04:50:27.449Z,0.00
2022-11-20T04:51:27.440Z,0.00
2022-11-20T04:52:27.434Z,0.00
2022-11-20T04:53:27.427Z,0.00
2022-11-20T04:54:27.447Z,0.00
2022-11-20T04:55:27.416Z,0.00
2022-11-20T04:56:27.407Z,0.00
2022-11-20T04:57:27.400Z,0.00
2022-11-20T04:58:27.392Z,0.00
2022-11-20T04:59:27.407Z,0.00
2022-11-20T05:00:27.650Z,0.00
2022-11-20T05:01:27.390Z,0.00
2022-11-20T05:02:28.364Z,0.00
2022-11-20T05:03:27.354Z,0.00
2022-11-20T05:04:27.434Z,0.00
2022-11-20T05:05:27.346Z,0.00
2022-11-20T05:06:27.333Z,0.00
2022-11-20T05:07:27.385Z,0.00
2022-11-20T05:08:27.321Z,0.00
2022-11-20T05:09:27.341Z,0.00
2022-11-20T05:10:27.324Z,0.00
2022-11-20T05:11:27.295Z,0.00
2022-11-20T05:12:27.289Z,0.00
2022-11-20T05:13:27.280Z,0.00
2022-11-20T05:14:27.302Z,0.00
2022-11-20T05:15:27.268Z,0.00
2022-11-20T05:16:27.253Z,0.00
2022-11-20T05:17:27.251Z,0.00
2022-11-20T05:18:27.240Z,0.00
2022-11-20T05:19:27.268Z,0.00
2022-11-20T05:20:27.223Z,0.00
2022-11-20T05:21:27.219Z,0.00
2022-11-20T05:22:27.215Z,0.00
2022-11-20T05:23:27.211Z,0.00
2022-11-20T05:24:27.203Z,0.00
2022-11-20T05:25:27.218Z,0.00
2022-11-20T05:26:27.182Z,0.00
2022-11-20T05:27:27.177Z,0.00
2022-11-20T05:28:27.170Z,0.00
2022-11-20T05:29:27.164Z,0.00
2022-11-20T05:30:27.198Z,0.00
2022-11-20T05:31:28.446Z,0.00
2022-11-20T05:32:28.138Z,0.00
2022-11-20T05:33:27.135Z,0.00
2022-11-20T05:34:27.130Z,0.00
2022-11-20T05:35:27.142Z,0.00
2022-11-20T05:36:27.112Z,0.00
2022-11-20T05:37:27.107Z,0.00
2022-11-20T05:38:27.098Z,0.00
2022-11-20T05:39:27.085Z,0.00
2022-11-20T05:40:27.109Z,0.00
2022-11-20T05:41:27.066Z,0.00
2022-11-20T05:42:27.065Z,0.00
2022-11-20T05:43:27.058Z,0.00
2022-11-20T05:44:27.049Z,0.00
2022-11-20T05:45:27.064Z,0.00
2022-11-20T05:46:29.260Z,0.00
2022-11-20T05:47:28.022Z,0.00
2022-11-20T05:48:27.017Z,0.00
2022-11-20T05:49:27.005Z,0.00
2022-11-20T05:50:27.022Z,0.00
2022-11-20T05:51:26.994Z,0.00
2022-11-20T05:52:26.983Z,0.00
2022-11-20T05:53:27.848Z,0.00
2022-11-20T05:54:27.970Z,0.00
2022-11-20T05:55:26.988Z,0.00
2022-11-20T05:56:26.956Z,0.00
2022-11-20T05:57:26.947Z,0.00
2022-11-20T05:58:26.942Z,0.00
2022-11-20T05:59:26.936Z,0.00
2022-11-20T06:00:26.955Z,0.00
2022-11-20T06:01:26.927Z,0.00
2022-11-20T06:02:26.939Z,0.00
2022-11-20T06:03:26.907Z,0.00
2022-11-20T06:04:26.901Z,0.00
2022-11-20T06:05:26.912Z,0.00
2022-11-20T06:06:26.888Z,0.00
2022-11-20T06:07:26.918Z,0.00
2022-11-20T06:08:26.862Z,0.00
2022-11-20T06:09:26.858Z,0.00
2022-11-20T06:10:26.880Z,0.00
2022-11-20T06:11:26.841Z,0.00
2022-11-20T06:12:26.847Z,0.00
2022-11-20T06:13:26.830Z,0.00
2022-11-20T06:14:26.821Z,0.00
2022-11-20T06:15:26.838Z,0.00
2022-11-20T06:16:26.802Z,0.00
2022-11-20T06:17:26.806Z,4.00
2022-11-20T06:18:26.793Z,4.00
2022-11-20T06:19:26.785Z,0.00
2022-11-20T06:20:26.806Z,4.00
2022-11-20T06:21:26.771Z,4.00
2022-11-20T06:22:26.765Z,4.00
2022-11-20T06:23:26.758Z,4.00
2022-11-20T06:24:26.747Z,4.00
2022-11-20T06:25:26.761Z,8.00
2022-11-20T06:26:26.734Z,12.00
2022-11-20T06:27:26.727Z,8.00
2022-11-20T06:28:26.719Z,12.00
2022-11-20T06:29:30.187Z,12.00
2022-11-20T06:30:28.723Z,16.00
2022-11-20T06:31:26.692Z,20.00
2022-11-20T06:32:26.689Z,24.00
2022-11-20T06:33:26.678Z,24.00
2022-11-20T06:34:26.674Z,28.00
2022-11-20T06:35:26.697Z,32.00
2022-11-20T06:36:26.663Z,36.00
2022-11-20T06:37:26.649Z,44.00
2022-11-20T06:38:26.640Z,48.00
2022-11-20T06:39:26.638Z,48.00
2022-11-20T06:40:26.651Z,48.00
2022-11-20T06:41:26.617Z,52.00
2022-11-20T06:42:26.611Z,56.00
2022-11-20T06:43:26.605Z,60.00
2022-11-20T06:44:26.607Z,64.00
2022-11-20T06:45:26.614Z,68.00
2022-11-20T06:46:26.584Z,72.00
2022-11-20T06:47:26.575Z,84.00
2022-11-20T06:48:26.569Z,88.00
2022-11-20T06:49:26.561Z,92.00
2022-11-20T06:50:26.582Z,104.00
2022-11-20T06:51:26.541Z,112.00
2022-11-20T06:52:26.538Z,120.00
2022-11-20T06:53:26.529Z,128.00
2022-11-20T06:54:26.522Z,136.00
2022-11-20T06:55:26.541Z,140.00
2022-11-20T06:56:26.507Z,152.00
2022-11-20T06:57:26.501Z,160.00
2022-11-20T06:58:26.494Z,168.00
2022-11-20T06:59:26.488Z,172.00
2022-11-20T07:00:26.508Z,180.00
2022-11-20T07:01:26.533Z,196.00
2022-11-20T07:02:26.464Z,208.00
2022-11-20T07:03:26.459Z,220.00
2022-11-20T07:04:26.448Z,232.00
2022-11-20T07:05:26.467Z,240.00
2022-11-20T07:06:26.435Z,252.00
2022-11-20T07:07:26.476Z,268.00
2022-11-20T07:08:26.425Z,288.00
2022-11-20T07:09:26.830Z,296.00
2022-11-20T07:10:26.426Z,308.00
2022-11-20T07:11:26.396Z,316.00
2022-11-20T07:12:26.384Z,328.00
2022-11-20T07:13:26.375Z,344.00
2022-11-20T07:14:26.359Z,356.00
2022-11-20T07:15:27.389Z,368.00
2022-11-20T07:16:27.360Z,376.00
2022-11-20T07:17:26.353Z,396.00
2022-11-20T07:18:26.345Z,412.00
2022-11-20T07:19:26.336Z,420.00
2022-11-20T07:20:26.355Z,436.00
2022-11-20T07:21:26.323Z,468.00
2022-11-20T07:22:26.313Z,516.00
2022-11-20T07:23:26.305Z,552.00
2022-11-20T07:24:26.296Z,568.00
2022-11-20T07:25:26.290Z,560.00
2022-11-20T07:26:26.306Z,568.00
2022-11-20T07:27:26.269Z,580.00
2022-11-20T07:28:26.265Z,608.00
2022-11-20T07:29:26.260Z,632.00
2022-11-20T07:30:26.282Z,652.00
2022-11-20T07:31:26.247Z,672.00
2022-11-20T07:32:26.238Z,688.00
2022-11-20T07:33:26.235Z,712.00
2022-11-20T07:34:26.223Z,736.00
2022-11-20T07:35:26.215Z,756.00
2022-11-20T07:36:26.229Z,780.00
2022-11-20T07:37:26.201Z,808.00
2022-11-20T07:38:26.191Z,832.00
2022-11-20T07:39:26.183Z,848.00
2022-11-20T07:40:26.176Z,876.00
2022-11-20T07:41:26.196Z,908.00
2022-11-20T07:42:26.157Z,936.00
2022-11-20T07:43:26.199Z,940.00
2022-11-20T07:44:26.146Z,936.00
2022-11-20T07:45:26.138Z,928.00
2022-11-20T07:46:26.160Z,924.00
2022-11-20T07:47:26.132Z,944.00
2022-11-20T07:48:26.117Z,996.00
2022-11-20T07:49:26.110Z,1040.00
2022-11-20T07:50:26.148Z,1048.00
2022-11-20T07:51:26.113Z,1020.00
2022-11-20T07:52:27.087Z,992.00
2022-11-20T07:53:26.085Z,996.00
2022-11-20T07:54:26.072Z,1016.00
2022-11-20T07:55:26.058Z,1044.00
2022-11-20T07:56:26.078Z,1068.00
2022-11-20T07:57:28.427Z,1104.00
2022-11-20T07:58:27.037Z,1144.00
2022-11-20T07:59:26.036Z,1204.00
2022-11-20T08:00:26.193Z,1272.00
2022-11-20T08:01:26.054Z,1348.00
2022-11-20T08:02:26.014Z,1408.00
2022-11-20T08:03:26.005Z,1472.00
2022-11-20T08:04:25.995Z,1536.00
2022-11-20T08:05:25.985Z,1544.00
2022-11-20T08:06:26.008Z,1496.00
2022-11-20T08:07:26.031Z,1484.00
2022-11-20T08:08:25.964Z,1536.00
2022-11-20T08:09:25.958Z,1568.00
2022-11-20T08:10:26.029Z,1532.00
2022-11-20T08:11:25.971Z,1476.00
2022-11-20T08:12:25.936Z,1420.00
2022-11-20T08:13:25.927Z,1384.00
2022-11-20T08:14:25.914Z,1384.00
2022-11-20T08:15:25.913Z,1420.00
2022-11-20T08:16:25.927Z,1488.00
2022-11-20T08:17:25.898Z,1576.00
2022-11-20T08:18:33.381Z,1652.00
2022-11-20T08:19:27.885Z,1712.00
2022-11-20T08:20:25.875Z,1784.00
2022-11-20T08:21:25.893Z,1848.00
2022-11-20T08:22:25.865Z,1892.00
2022-11-20T08:23:25.852Z,1900.00
2022-11-20T08:24:25.849Z,1868.00
2022-11-20T08:25:25.835Z,1856.00
2022-11-20T08:26:25.858Z,1904.00
2022-11-20T08:27:25.824Z,1984.00
2022-11-20T08:28:25.821Z,2032.00
2022-11-20T08:29:25.807Z,2028.00
2022-11-20T08:30:25.800Z,2040.00
2022-11-20T08:31:25.822Z,2084.00
2022-11-20T08:32:25.779Z,2108.00
2022-11-20T08:33:25.777Z,2156.00
2022-11-20T08:34:25.770Z,2200.00
2022-11-20T08:35:25.760Z,2216.00
2022-11-20T08:36:25.782Z,2288.00
2022-11-20T08:37:25.748Z,2364.00
2022-11-20T08:38:25.741Z,2404.00
2022-11-20T08:39:25.728Z,2400.00
2022-11-20T08:40:25.731Z,2416.00
2022-11-20T08:41:25.744Z,2480.00
2022-11-20T08:42:25.709Z,2528.00
2022-11-20T08:43:25.701Z,2472.00
2022-11-20T08:44:25.694Z,2376.00
2022-11-20T08:45:28.456Z,2332.00
2022-11-20T08:46:26.699Z,2312.00
2022-11-20T08:47:25.670Z,2260.00
2022-11-20T08:48:25.661Z,2184.00
2022-11-20T08:49:25.659Z,2104.00
2022-11-20T08:50:25.647Z,2120.00
2022-11-20T08:51:25.669Z,2228.00
2022-11-20T08:52:25.634Z,2300.00
2022-11-20T08:53:25.625Z,2300.00
2022-11-20T08:54:25.618Z,2200.00
2022-11-20T08:55:25.612Z,2048.00
2022-11-20T08:56:25.632Z,1964.00
2022-11-20T08:57:25.598Z,1984.00
2022-11-20T08:58:25.590Z,2068.00
2022-11-20T09:00:03.628Z,2100.00
2022-11-20T09:00:27.574Z,2096.00
2022-11-20T09:01:25.816Z,2120.00
2022-11-20T09:02:25.563Z,2160.00
2022-11-20T09:03:29.959Z,2196.00
2022-11-20T09:04:27.549Z,2268.00
2022-11-20T09:05:25.544Z,2396.00
2022-11-20T09:06:25.556Z,2516.00
2022-11-20T09:07:25.598Z,2612.00
2022-11-20T09:08:26.517Z,2668.00
2022-11-20T09:09:25.766Z,2648.00
2022-11-20T09:10:25.675Z,2632.00
2022-11-20T09:11:25.521Z,2612.00
2022-11-20T09:12:25.495Z,2600.00
2022-11-20T09:13:25.483Z,2600.00
2022-11-20T09:14:25.476Z,2520.00
2022-11-20T09:15:25.472Z,2364.00
2022-11-20T09:16:25.490Z,2424.00
2022-11-20T09:17:25.452Z,2736.00
2022-11-20T09:18:25.444Z,2992.00
2022-11-20T09:19:41.104Z,2964.00
2022-11-20T09:20:27.428Z,2840.00
2022-11-20T09:21:25.476Z,2836.00
2022-11-20T09:22:25.413Z,2920.00
2022-11-20T09:23:25.406Z,2976.00
2022-11-20T09:24:25.398Z,2928.00
2022-11-20T09:25:25.391Z,2792.00
2022-11-20T09:26:25.406Z,2696.00
2022-11-20T09:27:25.374Z,2736.00
2022-11-20T09:28:25.364Z,2868.00
2022-11-20T09:29:25.362Z,3104.00
2022-11-20T09:30:25.355Z,3356.00
2022-11-20T09:31:25.341Z,3488.00
2022-11-20T09:32:25.358Z,3508.00
2022-11-20T09:33:25.328Z,3456.00
2022-11-20T09:34:25.323Z,3464.00
2022-11-20T09:35:25.318Z,3512.00
2022-11-20T09:36:25.307Z,3488.00
2022-11-20T09:37:25.325Z,3356.00
2022-11-20T09:38:25.297Z,3304.00
2022-11-20T09:39:25.290Z,3388.00
2022-11-20T09:40:25.281Z,3516.00
2022-11-20T09:41:25.270Z,3616.00
2022-11-20T09:42:25.287Z,3592.00
2022-11-20T09:43:25.252Z,3512.00
2022-11-20T09:44:25.248Z,3344.00
2022-11-20T09:45:25.239Z,3256.00
2022-11-20T09:46:25.232Z,3356.00
2022-11-20T09:47:25.248Z,3448.00
2022-11-20T09:48:25.215Z,3472.00
2022-11-20T09:49:30.713Z,3388.00
2022-11-20T09:50:27.192Z,3264.00
2022-11-20T09:51:25.189Z,3200.00
2022-11-20T09:52:25.215Z,3248.00
2022-11-20T09:53:25.173Z,3332.00
2022-11-20T09:54:25.170Z,3404.00
2022-11-20T09:55:25.164Z,3480.00
2022-11-20T09:56:25.154Z,3552.00
2022-11-20T09:57:25.174Z,3604.00
2022-11-20T09:58:25.141Z,3648.00
2022-11-20T09:59:25.135Z,3644.00
2022-11-20T10:00:25.127Z,3588.00
2022-11-20T10:01:25.165Z,3472.00
2022-11-20T10:02:25.144Z,3424.00
2022-11-20T10:03:25.105Z,3512.00
2022-11-20T10:04:25.107Z,3612.00
2022-11-20T10:05:25.104Z,3656.00
2022-11-20T10:06:25.085Z,3700.00
2022-11-20T10:07:33.299Z,3820.00
2022-11-20T10:08:27.070Z,3932.00
2022-11-20T10:09:25.089Z,3932.00
2022-11-20T10:10:25.058Z,3764.00
2022-11-20T10:11:25.052Z,3564.00
2022-11-20T10:12:26.063Z,3452.00
2022-11-20T10:13:25.033Z,3468.00
2022-11-20T10:14:25.031Z,3660.00
2022-11-20T10:15:25.014Z,3876.00
2022-11-20T10:16:25.011Z,3976.00
2022-11-20T10:17:25.025Z,3988.00
2022-11-20T10:18:24.993Z,3912.00
2022-11-20T10:19:24.982Z,3788.00
2022-11-20T10:20:24.973Z,3812.00
2022-11-20T10:21:24.972Z,4004.00
2022-11-20T10:22:24.985Z,4228.00
2022-11-20T10:23:26.166Z,4396.00
2022-11-20T10:24:25.940Z,4568.00
2022-11-20T10:25:24.942Z,4696.00
2022-11-20T10:26:24.935Z,4672.00
2022-11-20T10:27:24.945Z,4696.00
2022-11-20T10:28:24.918Z,4828.00
2022-11-20T10:29:25.156Z,4972.00
2022-11-20T10:30:24.902Z,5120.00
2022-11-20T10:31:24.894Z,5076.00
2022-11-20T10:32:24.909Z,4908.00
2022-11-20T10:33:24.876Z,4932.00
2022-11-20T10:34:24.878Z,5072.00
2022-11-20T10:35:24.865Z,5220.00
2022-11-20T10:36:24.865Z,5404.00
2022-11-20T10:37:24.878Z,5788.00
2022-11-20T10:38:24.839Z,6468.00
2022-11-20T10:39:25.064Z,7136.00
2022-11-20T10:40:24.822Z,7300.00
2022-11-20T10:41:24.814Z,6740.00
2022-11-20T10:42:24.833Z,6208.00
2022-11-20T10:43:24.802Z,6088.00
2022-11-20T10:44:24.793Z,6048.00
2022-11-20T10:45:24.794Z,6100.00
2022-11-20T10:46:24.778Z,6292.00
2022-11-20T10:47:24.795Z,6496.00
2022-11-20T10:48:24.779Z,6564.00
2022-11-20T10:49:24.783Z,6276.00
2022-11-20T10:50:24.751Z,5928.00
2022-11-20T10:51:24.742Z,5572.00
2022-11-20T10:52:24.761Z,5172.00
2022-11-20T10:53:24.726Z,4784.00
2022-11-20T10:54:24.723Z,4416.00
2022-11-20T10:55:24.712Z,4192.00
2022-11-20T10:56:24.700Z,4128.00
2022-11-20T10:57:24.721Z,4204.00
2022-11-20T10:58:24.686Z,4060.00
2022-11-20T10:59:24.892Z,3880.00
2022-11-20T11:00:24.671Z,3816.00
2022-11-20T11:01:24.837Z,3784.00
2022-11-20T11:02:24.691Z,3808.00
2022-11-20T11:03:24.646Z,3876.00
2022-11-20T11:04:24.637Z,3904.00
2022-11-20T11:05:24.622Z,3904.00
2022-11-20T11:06:25.625Z,3796.00
2022-11-20T11:07:24.715Z,3696.00
2022-11-20T11:08:24.608Z,3716.00
2022-11-20T11:09:24.781Z,3676.00
2022-11-20T11:10:24.593Z,3684.00
2022-11-20T11:11:24.595Z,3708.00
2022-11-20T11:12:24.608Z,3788.00
2022-11-20T11:13:24.574Z,3832.00
2022-11-20T11:14:24.564Z,3772.00
2022-11-20T11:15:24.559Z,3636.00
2022-11-20T11:16:24.559Z,3488.00
2022-11-20T11:17:24.545Z,3444.00
2022-11-20T11:18:24.570Z,3492.00
2022-11-20T11:19:24.902Z,3548.00
2022-11-20T11:20:24.517Z,3624.00
2022-11-20T11:21:24.514Z,3800.00
2022-11-20T11:22:24.509Z,3884.00
2022-11-20T11:23:24.524Z,3772.00
2022-11-20T11:24:41.738Z,3704.00
2022-11-20T11:25:26.477Z,3784.00
2022-11-20T11:26:24.472Z,3856.00
2022-11-20T11:27:24.463Z,3784.00
2022-11-20T11:28:24.481Z,3724.00
2022-11-20T11:29:24.853Z,3876.00
2022-11-20T11:30:24.444Z,4168.00
2022-11-20T11:31:24.438Z,4492.00
2022-11-20T11:32:24.425Z,4724.00
2022-11-20T11:33:24.447Z,5008.00
2022-11-20T11:34:24.407Z,5380.00
2022-11-20T11:35:24.402Z,5668.00
2022-11-20T11:36:24.397Z,5760.00
2022-11-20T11:37:24.385Z,5700.00
2022-11-20T11:38:24.402Z,5484.00
2022-11-20T11:39:24.898Z,5188.00
2022-11-20T11:40:25.588Z,4884.00
2022-11-20T11:41:24.352Z,4748.00
2022-11-20T11:42:24.345Z,4888.00
2022-11-20T11:43:24.360Z,5060.00
2022-11-20T11:44:24.331Z,5100.00
2022-11-20T11:45:24.317Z,4904.00
2022-11-20T11:46:24.316Z,4920.00
2022-11-20T11:47:24.326Z,5128.00
2022-11-20T11:48:24.311Z,5220.00
2022-11-20T11:49:25.739Z,5108.00
2022-11-20T11:50:24.277Z,4920.00
2022-11-20T11:51:24.267Z,4924.00
2022-11-20T11:52:24.262Z,5128.00
2022-11-20T11:53:24.278Z,5456.00
2022-11-20T11:54:24.247Z,5652.00
2022-11-20T11:55:24.239Z,5604.00
2022-11-20T11:56:24.220Z,5492.00
2022-11-20T11:57:24.222Z,5636.00
2022-11-20T11:58:24.236Z,5652.00
2022-11-20T11:59:24.600Z,5476.00
2022-11-20T12:00:24.195Z,5136.00
2022-11-20T12:01:24.188Z,4996.00
2022-11-20T12:02:24.231Z,5100.00
2022-11-20T12:03:24.201Z,5248.00
2022-11-20T12:04:24.161Z,5256.00
2022-11-20T12:05:24.155Z,5068.00
2022-11-20T12:06:24.144Z,4836.00
2022-11-20T12:07:45.469Z,4612.00
2022-11-20T12:08:26.207Z,4296.00
2022-11-20T12:09:24.381Z,4040.00
2022-11-20T12:10:24.118Z,3996.00
2022-11-20T12:11:24.109Z,4164.00
2022-11-20T12:12:24.099Z,4484.00
2022-11-20T12:13:24.116Z,4776.00
2022-11-20T12:14:24.080Z,4864.00
2022-11-20T12:15:24.079Z,4916.00
2022-11-20T12:16:24.071Z,4868.00
2022-11-20T12:17:24.055Z,4744.00
2022-11-20T12:18:24.075Z,4620.00
2022-11-20T12:19:24.264Z,4304.00
2022-11-20T12:20:24.036Z,4008.00
2022-11-20T12:21:24.033Z,3916.00
2022-11-20T12:22:24.020Z,3952.00
2022-11-20T12:23:24.040Z,4056.00
2022-11-20T12:24:25.002Z,4152.00
2022-11-20T12:25:23.999Z,4144.00
2022-11-20T12:26:23.984Z,3988.00
2022-11-20T12:27:23.986Z,3936.00
2022-11-20T12:28:23.999Z,4196.00
2022-11-20T12:29:24.370Z,4104.00
2022-11-20T12:30:23.951Z,3856.00
2022-11-20T12:31:23.943Z,3632.00
2022-11-20T12:32:23.938Z,3380.00
2022-11-20T12:33:23.955Z,3688.00
2022-11-20T12:34:23.922Z,4040.00
2022-11-20T12:35:23.922Z,4260.00
2022-11-20T12:36:23.911Z,4356.00
2022-11-20T12:37:23.901Z,4188.00
2022-11-20T12:38:23.922Z,3312.00
2022-11-20T12:39:24.233Z,2656.00
2022-11-20T12:40:23.877Z,2492.00
2022-11-20T12:41:23.859Z,2788.00
2022-11-20T12:42:23.861Z,3340.00
2022-11-20T12:43:23.850Z,3716.00
2022-11-20T12:44:23.882Z,3768.00